createdAt,value
2023-02-24T00:04:52.638Z,34.03
2023-02-24T00:09:56.887Z,32.57
2023-02-24T00:14:59.953Z,37.80
2023-02-24T00:20:05.634Z,33.60
2023-02-24T00:25:12.274Z,28.03
2023-02-24T00:30:16.446Z,26.63
2023-02-24T00:35:19.883Z,24.00
2023-02-24T00:40:25.069Z,23.30
2023-02-24T00:45:30.923Z,25.93
2023-02-24T00:50:33.975Z,27.87
2023-02-24T00:55:38.460Z,26.70
2023-02-24T01:00:43.498Z,24.73
2023-02-24T01:05:46.495Z,22.73
2023-02-24T01:11:19.178Z,20.07
2023-02-24T01:16:22.483Z,19.27
2023-02-24T01:21:25.529Z,18.20
2023-02-24T01:26:30.917Z,17.77
2023-02-24T01:31:33.926Z,17.90
2023-02-24T01:36:36.854Z,18.63
2023-02-24T01:41:43.807Z,18.30
2023-02-24T01:46:49.680Z,17.40
2023-02-24T01:51:57.374Z,15.90
2023-02-24T01:57:01.787Z,15.60
2023-02-24T02:02:08.962Z,15.77
2023-02-24T02:07:13.742Z,15.23
2023-02-24T02:12:18.069Z,14.03
2023-02-24T02:17:30.435Z,13.30
2023-02-24T02:23:06.692Z,13.50
2023-02-24T02:28:45.460Z,12.63
2023-02-24T02:34:13.861Z,13.93
2023-02-24T02:39:27.337Z,13.63
2023-02-24T02:44:39.754Z,14.50
2023-02-24T02:49:48.965Z,14.70
2023-02-24T02:54:57.708Z,14.10
2023-02-24T03:00:12.334Z,14.03
2023-02-24T03:05:21.474Z,14.23
2023-02-24T03:10:28.881Z,12.10
2023-02-24T03:15:34.185Z,13.17
2023-02-24T03:20:43.023Z,11.30
2023-02-24T03:25:53.361Z,11.37
2023-02-24T03:31:05.063Z,11.07
2023-02-24T03:36:09.946Z,10.47
2023-02-24T03:41:13.527Z,10.93
2023-02-24T03:46:17.996Z,10.60
2023-02-24T03:51:24.332Z,9.60
2023-02-24T03:56:40.472Z,10.47
2023-02-24T04:01:57.929Z,10.00
2023-02-24T04:07:12.997Z,10.87
2023-02-24T04:12:20.885Z,10.67
2023-02-24T04:17:33.175Z,10.23
2023-02-24T04:22:41.521Z,10.17
2023-02-24T04:27:47.318Z,9.20
2023-02-24T04:32:53.422Z,8.03
2023-02-24T04:37:58.306Z,6.10
2023-02-24T04:43:03.083Z,7.70
2023-02-24T04:48:12.107Z,6.73
2023-02-24T04:53:18.102Z,7.10
2023-02-24T04:58:22.592Z,8.03
2023-02-24T05:03:28.492Z,7.60
2023-02-24T05:08:34.161Z,7.90
2023-02-24T05:13:37.694Z,8.63
2023-02-24T05:18:42.667Z,8.77
2023-02-24T05:23:47.938Z,9.43
2023-02-24T05:28:52.290Z,9.70
2023-02-24T05:33:59.191Z,8.13
2023-02-24T05:39:07.443Z,6.60
2023-02-24T05:44:15.836Z,6.90
2023-02-24T05:49:23.432Z,6.10
2023-02-24T05:54:30.667Z,5.37
2023-02-24T05:59:34.459Z,6.17
2023-02-24T06:04:46.532Z,5.57
2023-02-24T06:09:54.046Z,5.63
2023-02-24T06:14:58.101Z,4.90
2023-02-24T06:20:00.988Z,4.87
2023-02-24T06:25:06.666Z,5.07
2023-02-24T06:30:11.555Z,2.63
2023-02-24T06:35:14.567Z,2.80
2023-02-24T06:40:19.940Z,3.30
2023-02-24T06:45:24.221Z,3.40
2023-02-24T06:50:27.167Z,3.40
2023-02-24T06:55:35.543Z,3.40
2023-02-24T07:00:39.153Z,3.17
2023-02-24T07:05:49.304Z,3.50
2023-02-24T07:10:58.296Z,3.20
2023-02-24T07:16:06.847Z,3.13
2023-02-24T07:21:11.652Z,3.60
2023-02-24T07:26:18.451Z,3.73
2023-02-24T07:31:24.265Z,3.43
2023-02-24T07:36:30.289Z,3.10
2023-02-24T07:41:37.113Z,2.77
2023-02-24T07:46:40.774Z,3.37
2023-02-24T07:51:43.806Z,2.90
2023-02-24T07:56:56.252Z,2.80
2023-02-24T08:02:00.632Z,3.07
2023-02-24T08:07:05.242Z,2.40
2023-02-24T08:12:09.765Z,2.77
2023-02-24T08:17:19.842Z,2.97
2023-02-24T08:22:24.202Z,2.90
2023-02-24T08:27:30.674Z,3.30
2023-02-24T08:32:37.213Z,2.67
2023-02-24T08:37:40.666Z,3.20
2023-02-24T08:42:45.094Z,3.50
2023-02-24T08:47:48.582Z,2.70
2023-02-24T08:52:51.686Z,3.27
2023-02-24T08:57:56.318Z,3.00
2023-02-24T09:02:59.200Z,2.53
2023-02-24T09:08:02.259Z,3.07
2023-02-24T09:13:08.688Z,2.87
2023-02-24T09:18:14.373Z,3.10
2023-02-24T09:23:20.944Z,3.73
2023-02-24T09:28:26.857Z,4.10
2023-02-24T09:33:39.106Z,4.27
2023-02-24T09:39:02.359Z,5.97
2023-02-24T09:44:18.713Z,3.90
2023-02-24T09:49:25.245Z,3.53
2023-02-24T09:54:32.835Z,4.07
2023-02-24T10:00:01.432Z,2.70
2023-02-24T10:05:38.615Z,3.53
2023-02-24T10:11:00.889Z,3.30
2023-02-24T10:16:10.570Z,3.53
2023-02-24T10:21:30.583Z,3.97
2023-02-24T10:26:51.265Z,3.00
2023-02-24T10:32:23.647Z,3.10
2023-02-24T10:37:29.533Z,2.90
2023-02-24T10:42:34.492Z,2.70
2023-02-24T10:47:44.383Z,3.20
2023-02-24T10:53:11.287Z,2.70
2023-02-24T10:58:27.840Z,3.00
2023-02-24T11:03:42.022Z,3.60
2023-02-24T11:08:54.640Z,3.90
2023-02-24T11:14:16.918Z,5.60
2023-02-24T11:19:21.674Z,4.67
2023-02-24T11:24:24.900Z,4.57
2023-02-24T11:29:42.171Z,3.93
2023-02-24T11:34:53.817Z,4.63
2023-02-24T11:40:01.609Z,3.97
2023-02-24T11:45:13.865Z,4.30
2023-02-24T11:50:32.063Z,3.60
2023-02-24T11:55:42.501Z,4.03
2023-02-24T12:01:07.526Z,3.70
2023-02-24T12:06:18.395Z,4.40
2023-02-24T12:11:30.430Z,4.57
2023-02-24T12:16:38.447Z,4.30
2023-02-24T12:21:46.076Z,3.87
2023-02-24T12:26:59.510Z,4.40
2023-02-24T12:32:11.382Z,4.97
2023-02-24T12:37:40.378Z,5.20
2023-02-24T12:42:52.258Z,5.77
2023-02-24T12:48:06.442Z,5.10
2023-02-24T12:53:21.696Z,5.57
2023-02-24T12:58:29.933Z,5.80
2023-02-24T13:03:46.245Z,5.83
2023-02-24T13:08:59.487Z,6.07
2023-02-24T13:14:09.559Z,6.10
2023-02-24T13:19:21.510Z,6.50
2023-02-24T13:24:26.549Z,7.90
2023-02-24T13:29:29.568Z,6.20
2023-02-24T13:34:35.028Z,6.40
2023-02-24T13:39:41.964Z,5.60
2023-02-24T13:44:50.099Z,6.10
2023-02-24T13:50:04.762Z,5.37
2023-02-24T13:55:22.410Z,5.57
2023-02-24T14:00:32.698Z,5.83
2023-02-24T14:05:37.171Z,5.83
2023-02-24T14:10:46.819Z,5.30
2023-02-24T14:15:50.094Z,5.70
2023-02-24T14:20:54.515Z,5.70
2023-02-24T14:26:00.863Z,6.83
2023-02-24T14:31:08.130Z,6.00
2023-02-24T14:36:17.644Z,6.90
2023-02-24T14:41:24.801Z,5.50
2023-02-24T14:46:27.855Z,5.80
2023-02-24T14:51:35.677Z,5.80
2023-02-24T14:56:41.539Z,5.60
2023-02-24T15:01:48.695Z,5.57
2023-02-24T15:06:51.768Z,5.30
2023-02-24T15:11:56.894Z,5.70
2023-02-24T15:17:02.331Z,4.50
2023-02-24T15:22:05.956Z,5.83
2023-02-24T15:27:27.053Z,6.40
2023-02-24T15:32:35.377Z,5.40
2023-02-24T15:37:42.688Z,6.07
2023-02-24T15:42:53.255Z,5.90
2023-02-24T15:47:57.820Z,5.40
2023-02-24T15:53:04.873Z,6.00
2023-02-24T15:58:17.167Z,6.40
2023-02-24T16:03:20.616Z,6.00
2023-02-24T16:08:23.633Z,6.00
2023-02-24T16:13:28.560Z,5.80
2023-02-24T16:18:31.569Z,4.63
2023-02-24T16:23:40.285Z,5.00
2023-02-24T16:28:45.227Z,5.07
2023-02-24T16:33:54.562Z,7.60
2023-02-24T16:38:58.771Z,6.37
2023-02-24T16:44:03.902Z,5.40
2023-02-24T16:49:11.769Z,5.30
2023-02-24T16:54:14.748Z,7.20
2023-02-24T16:59:19.262Z,11.80
2023-02-24T17:04:22.712Z,5.40
2023-02-24T17:09:28.691Z,6.63
2023-02-24T17:14:32.999Z,6.23
2023-02-24T17:19:35.987Z,5.30
2023-02-24T17:24:39.148Z,5.17
2023-02-24T17:29:43.600Z,5.60
2023-02-24T17:34:46.681Z,5.33
2023-02-24T17:39:50.127Z,9.20
2023-02-24T17:44:54.484Z,7.20
2023-02-24T17:49:57.462Z,6.57
2023-02-24T17:55:01.216Z,4.73
2023-02-24T18:00:07.862Z,5.07
2023-02-24T18:05:16.704Z,4.70
2023-02-24T18:10:20.070Z,4.00
2023-02-24T18:15:25.621Z,4.80
2023-02-24T18:20:29.740Z,4.13
2023-02-24T18:25:36.139Z,3.93
2023-02-24T18:30:41.058Z,4.43
2023-02-24T18:35:44.470Z,3.80
2023-02-24T18:40:47.359Z,3.30
2023-02-24T18:45:56.797Z,3.60
2023-02-24T18:51:01.558Z,3.23
2023-02-24T18:56:06.711Z,3.37
2023-02-24T19:01:15.910Z,3.20
2023-02-24T19:06:21.542Z,3.03
2023-02-24T19:11:25.775Z,2.83
2023-02-24T19:16:30.858Z,3.33
2023-02-24T19:21:34.526Z,3.03
2023-02-24T19:26:38.662Z,2.90
2023-02-24T19:31:43.062Z,2.80
2023-02-24T19:36:46.924Z,2.50
2023-02-24T19:41:50.220Z,2.83
2023-02-24T19:46:55.306Z,2.47
2023-02-24T19:51:59.212Z,2.63
2023-02-24T19:57:02.188Z,2.93
2023-02-24T20:02:06.798Z,3.23
2023-02-24T20:07:09.957Z,3.03
2023-02-24T20:12:13.106Z,3.83
2023-02-24T20:17:18.340Z,4.00
2023-02-24T20:22:21.653Z,4.57
2023-02-24T20:27:24.647Z,5.57
2023-02-24T20:32:29.483Z,5.77
2023-02-24T20:37:32.575Z,5.50
2023-02-24T20:42:35.834Z,6.03
2023-02-24T20:47:40.519Z,6.13
2023-02-24T20:52:43.753Z,6.20
2023-02-24T20:57:47.042Z,5.73
2023-02-24T21:02:51.931Z,6.40
2023-02-24T21:07:55.303Z,5.90
2023-02-24T21:12:58.396Z,6.37
2023-02-24T21:18:02.872Z,7.03
2023-02-24T21:23:09.534Z,6.30
2023-02-24T21:28:12.485Z,7.00
2023-02-24T21:33:18.680Z,6.90
2023-02-24T21:38:21.598Z,6.43
2023-02-24T21:43:26.760Z,7.87
2023-02-24T21:48:31.209Z,7.10
2023-02-24T21:53:35.622Z,8.20
2023-02-24T21:58:40.366Z,6.97
2023-02-24T22:03:46.016Z,8.47
2023-02-24T22:08:48.964Z,7.20
2023-02-24T22:13:51.881Z,7.50
2023-02-24T22:18:56.777Z,7.90
2023-02-24T22:24:01.080Z,8.70
2023-02-24T22:29:04.975Z,6.97
2023-02-24T22:34:09.310Z,7.00
2023-02-24T22:39:16.402Z,7.23
2023-02-24T22:44:21.096Z,6.87
2023-02-24T22:49:25.311Z,7.67
2023-02-24T22:54:28.164Z,7.13
2023-02-24T22:59:31.149Z,7.37
2023-02-24T23:04:35.448Z,7.10
2023-02-24T23:09:38.370Z,7.53
2023-02-24T23:14:41.281Z,7.40
2023-02-24T23:19:46.622Z,7.00
2023-02-24T23:24:50.863Z,8.23
2023-02-24T23:29:53.695Z,8.07
2023-02-24T23:34:57.950Z,6.97
2023-02-24T23:40:00.889Z,6.23
2023-02-24T23:45:04.467Z,6.27
2023-02-24T23:50:10.312Z,6.00
2023-02-24T23:55:13.746Z,5.83
